Time;durP1;ratioP1;P1;durP2;ratioP2;P2;SDS_P1;SDS_P2;PMS_P1;PMS_P2;Temp;Humidity;BMP_temperature;BMP_pressure;BME280_temperature;BME280_humidity;BME280_pressure;Samples;Min_cycle;Max_cycle;Signal;HPM_P1;HPM_P2
2021/06/28 00:02:05;;;;;;;;;;;;;;;12.94;100.00;99461.13;5129069;27;19927;-77
2021/06/28 00:04:40;;;;;;;;;;;;;;;12.93;100.00;99448.34;5134055;27;19977;-77
2021/06/28 00:07:07;;;;;;;;;;;;;;;12.98;100.00;99447.84;5134362;27;19923;-76
2021/06/28 00:09:34;;;;;;;;;;;;;;;12.99;100.00;99446.59;5111056;27;19931;-77
2021/06/28 00:12:02;;;;;;;;;;;;;;;12.98;100.00;99448.63;5133148;27;19962;-77
2021/06/28 00:14:29;;;;;;;;;;;;;;;12.99;100.00;99441.81;5133938;27;19923;-77
2021/06/28 00:16:57;;;;;;;;;;;;;;;12.99;100.00;99438.19;5133604;27;19931;-77
2021/06/28 00:19:24;;;;;;;;;;;;;;;12.98;100.00;99434.59;5124657;27;20427;-77
2021/06/28 00:21:51;;;;;;;;;;;;;;;12.97;100.00;99429.41;5092072;27;19924;-77
2021/06/28 00:24:18;;;;;;;;;;;;;;;12.94;100.00;99427.47;5115046;27;19924;-77
2021/06/28 00:26:45;;;;;;;;;;;;;;;12.80;100.00;99434.16;5133347;27;19930;-77
2021/06/28 00:29:12;;;;;;;;;;;;;;;12.83;100.00;99438.13;5080355;28;20047;-77
2021/06/28 00:31:40;;;;;;;;;;;;;;;12.81;100.00;99435.75;5107429;28;19976;-76
2021/06/28 00:34:07;;;;;;;;;;;;;;;12.84;100.00;99434.09;5132840;27;19924;-77
2021/06/28 00:36:34;;;;;;;;;;;;;;;12.86;100.00;99432.44;5133135;27;20400;-76
2021/06/28 00:39:01;;;;;;;;;;;;;;;12.89;100.00;99436.41;5133089;27;20272;-76
2021/06/28 00:41:28;;;;;;;;;;;;;;;12.86;100.00;99440.06;5133279;27;19924;-76
2021/06/28 00:43:56;;;;;;;;;;;;;;;12.92;100.00;99432.75;5131863;27;19950;-76
2021/06/28 00:46:23;;;;;;;;;;;;;;;12.91;100.00;99436.75;5133240;27;20063;-77
2021/06/28 00:48:50;;;;;;;;;;;;;;;12.87;100.00;99433.22;5118207;27;20259;-77
2021/06/28 00:51:17;;;;;;;;;;;;;;;12.96;100.00;99436.25;5093292;28;19963;-77
2021/06/28 00:53:45;;;;;;;;;;;;;;;12.98;100.00;99434.59;5101329;28;19924;-77
2021/06/28 00:56:12;;;;;;;;;;;;;;;12.95;100.00;99431.88;5093152;28;20364;-77
2021/06/28 00:58:41;;;;;;;;;;;;;;;12.95;100.00;99429.06;5101961;28;19960;-77
2021/06/28 01:01:09;;;;;;;;;;;;;;;12.83;100.00;99432.50;5112402;28;19931;-77
2021/06/28 01:03:37;;;;;;;;;;;;;;;12.75;100.00;99427.03;5135189;27;20339;-77
2021/06/28 01:06:04;;;;;;;;;;;;;;;12.80;100.00;99424.97;5136818;27;19923;-76
2021/06/28 01:08:32;;;;;;;;;;;;;;;12.73;100.00;99423.06;5136586;27;20286;-77
2021/06/28 01:11:01;;;;;;;;;;;;;;;12.67;100.00;99425.59;5136720;27;19992;-76
2021/06/28 01:13:33;;;;;;;;;;;;;;;12.62;100.00;99433.69;5136940;27;20345;-77
2021/06/28 01:16:02;;;;;;;;;;;;;;;12.63;100.00;99424.84;5101734;27;19927;-76
2021/06/28 01:18:30;;;;;;;;;;;;;;;12.62;100.00;99425.28;5135242;27;19979;-77
2021/06/28 01:20:59;;;;;;;;;;;;;;;12.66;100.00;99418.38;5136789;27;19968;-77
2021/06/28 01:23:32;;;;;;;;;;;;;;;12.65;100.00;99428.03;5133968;27;20391;-77
2021/06/28 01:26:01;;;;;;;;;;;;;;;12.61;100.00;99426.50;5137353;27;19928;-77
2021/06/28 01:28:33;;;;;;;;;;;;;;;12.58;100.00;99439.38;5129661;27;20325;-76
2021/06/28 01:31:01;;;;;;;;;;;;;;;12.54;100.00;99438.63;5135973;27;20394;-76
2021/06/28 01:33:28;;;;;;;;;;;;;;;12.53;100.00;99437.06;5118125;27;19924;-76
2021/06/28 01:35:56;;;;;;;;;;;;;;;12.58;100.00;99444.97;5135735;27;19927;-76
2021/06/28 01:38:23;;;;;;;;;;;;;;;12.56;100.00;99446.59;5118144;27;19927;-76
2021/06/28 01:40:51;;;;;;;;;;;;;;;12.56;100.00;99450.22;5117912;27;20289;-76
2021/06/28 01:43:18;;;;;;;;;;;;;;;12.59;100.00;99446.56;5135927;27;19976;-76
2021/06/28 01:45:47;;;;;;;;;;;;;;;12.56;100.00;99447.41;5135741;27;19938;-76
2021/06/28 01:48:14;;;;;;;;;;;;;;;12.56;100.00;99441.81;5136032;27;20346;-76
2021/06/28 01:50:41;;;;;;;;;;;;;;;12.63;100.00;99452.09;5135758;27;20370;-77
2021/06/28 01:53:09;;;;;;;;;;;;;;;12.62;100.00;99451.31;5135876;27;19971;-76
2021/06/28 01:55:37;;;;;;;;;;;;;;;12.65;100.00;99447.66;5135780;27;19931;-77
2021/06/28 01:58:07;;;;;;;;;;;;;;;12.66;100.00;99446.41;5134453;27;20374;-77
2021/06/28 02:00:36;;;;;;;;;;;;;;;12.58;100.00;99441.38;5117292;27;19957;-76
2021/06/28 02:03:06;;;;;;;;;;;;;;;12.58;100.00;99439.38;5135501;27;19976;-77
2021/06/28 02:05:45;;;;;;;;;;;;;;;12.53;100.00;99431.44;5100366;27;19994;-76
2021/06/28 02:08:37;;;;;;;;;;;;;;;12.47;100.00;99427.56;5134651;27;19931;-76
2021/06/28 02:11:05;;;;;;;;;;;;;;;12.45;100.00;99429.97;5135399;27;19928;-77
2021/06/28 02:13:36;;;;;;;;;;;;;;;12.47;100.00;99424.75;5135315;27;19923;-77
2021/06/28 02:16:04;;;;;;;;;;;;;;;12.51;100.00;99424.69;5135436;27;19935;-76
2021/06/28 02:18:32;;;;;;;;;;;;;;;12.48;100.00;99423.53;5117315;27;19927;-77
2021/06/28 02:21:00;;;;;;;;;;;;;;;12.52;100.00;99413.06;5135468;27;20489;-76
2021/06/28 02:23:27;;;;;;;;;;;;;;;12.51;100.00;99411.47;5135201;27;19928;-77
2021/06/28 02:25:56;;;;;;;;;;;;;;;12.49;100.00;99418.72;5135080;27;19931;-76
2021/06/28 02:28:24;;;;;;;;;;;;;;;12.38;100.00;99402.09;5116652;27;19929;-76
2021/06/28 02:30:53;;;;;;;;;;;;;;;12.32;100.00;99409.41;5134873;27;20142;-76
2021/06/28 02:33:21;;;;;;;;;;;;;;;12.30;100.00;99399.81;5135156;27;19923;-76
2021/06/28 02:35:48;;;;;;;;;;;;;;;12.27;100.00;99390.28;5134926;27;19957;-76
2021/06/28 02:38:16;;;;;;;;;;;;;;;12.33;100.00;99394.16;5116891;27;20386;-76
2021/06/28 02:40:44;;;;;;;;;;;;;;;12.31;100.00;99395.84;5134695;27;19931;-76
2021/06/28 02:43:31;;;;;;;;;;;;;;;12.30;100.00;99386.63;5091574;27;19927;-76
2021/06/28 02:45:59;;;;;;;;;;;;;;;12.27;100.00;99393.09;5134665;27;19927;-76
2021/06/28 02:48:26;;;;;;;;;;;;;;;12.17;100.00;99388.47;5135136;27;20401;-76
2021/06/28 02:50:54;;;;;;;;;;;;;;;12.21;100.00;99393.97;5134521;27;19927;-77
2021/06/28 02:53:21;;;;;;;;;;;;;;;12.24;100.00;99384.72;5134847;27;19946;-76
2021/06/28 02:55:49;;;;;;;;;;;;;;;12.30;100.00;99383.81;5134507;27;20362;-77
2021/06/28 02:58:17;;;;;;;;;;;;;;;12.30;100.00;99383.81;5134251;27;19923;-77
2021/06/28 03:00:44;;;;;;;;;;;;;;;12.35;100.00;99386.13;5134439;27;20424;-77
2021/06/28 03:03:23;;;;;;;;;;;;;;;12.31;100.00;99390.22;5089996;28;19912;-76
2021/06/28 03:06:03;;;;;;;;;;;;;;;12.32;100.00;99392.59;5081786;28;19959;-76
2021/06/28 03:08:43;;;;;;;;;;;;;;;12.30;100.00;99400.63;5130198;27;19916;-76
2021/06/28 03:11:22;;;;;;;;;;;;;;;12.32;100.00;99397.41;5108215;27;19941;-76
2021/06/28 03:14:01;;;;;;;;;;;;;;;12.36;100.00;99392.50;5089709;28;19939;-76
2021/06/28 03:16:40;;;;;;;;;;;;;;;12.28;100.00;99396.69;5110350;27;19912;-79
2021/06/28 03:19:18;;;;;;;;;;;;;;;12.31;100.00;99395.84;5110432;27;19916;-76
2021/06/28 03:21:57;;;;;;;;;;;;;;;12.24;100.00;99395.94;5123315;27;20432;-76
2021/06/28 03:24:36;;;;;;;;;;;;;;;12.28;100.00;99394.66;5089628;28;19977;-79
2021/06/28 03:27:38;;;;;;;;;;;;;;;12.16;100.00;99395.25;5109838;27;19965;-78
2021/06/28 03:30:20;;;;;;;;;;;;;;;12.14;100.00;99389.31;5079616;28;20342;-76
2021/06/28 03:33:05;;;;;;;;;;;;;;;12.20;100.00;99393.22;5090231;28;19917;-79
2021/06/28 03:35:50;;;;;;;;;;;;;;;12.19;100.00;99396.44;5090533;28;20318;-76
2021/06/28 03:38:37;;;;;;;;;;;;;;;12.21;100.00;99379.97;5089808;28;19962;-76
2021/06/28 03:41:16;;;;;;;;;;;;;;;12.11;100.00;99392.97;5110047;27;19958;-77
2021/06/28 03:43:55;;;;;;;;;;;;;;;12.17;100.00;99385.66;5130741;27;19916;-77
2021/06/28 03:46:34;;;;;;;;;;;;;;;12.26;100.00;99382.31;5095951;27;19913;-79
2021/06/28 03:49:13;;;;;;;;;;;;;;;12.23;100.00;99378.34;5089734;28;19912;-79
2021/06/28 03:51:54;;;;;;;;;;;;;;;12.23;100.00;99383.97;5110143;27;19912;-76
2021/06/28 03:54:32;;;;;;;;;;;;;;;12.23;100.00;99383.97;5110269;27;20371;-76
2021/06/28 03:57:10;;;;;;;;;;;;;;;12.14;100.00;99397.72;5109981;27;19916;-79
2021/06/28 03:59:49;;;;;;;;;;;;;;;12.16;100.00;99388.88;5089893;28;19913;-79
2021/06/28 04:02:30;;;;;;;;;;;;;;;12.16;100.00;99384.06;5090009;28;20429;-76
2021/06/28 04:05:12;;;;;;;;;;;;;;;12.20;100.00;99390.41;5089922;28;21065;-79
2021/06/28 04:07:52;;;;;;;;;;;;;;;12.17;100.00;99377.25;5110162;27;19957;-79
2021/06/28 04:10:31;;;;;;;;;;;;;;;12.21;100.00;99379.97;5131042;27;19976;-79
2021/06/28 04:13:09;;;;;;;;;;;;;;;12.19;100.00;99382.44;5110373;27;19912;-79
2021/06/28 04:15:49;;;;;;;;;;;;;;;12.14;100.00;99386.53;5089756;28;19939;-76
2021/06/28 04:18:27;;;;;;;;;;;;;;;12.10;100.00;99396.97;5110457;27;19938;-79
2021/06/28 04:21:05;;;;;;;;;;;;;;;12.06;100.00;99395.44;5064631;27;1990543;-79
2021/06/28 04:23:44;;;;;;;;;;;;;;;12.07;100.00;99408.25;5089929;28;19920;-79
2021/06/28 04:26:24;;;;;;;;;;;;;;;12.10;100.00;99415.81;5089688;28;19921;-76
2021/06/28 04:29:03;;;;;;;;;;;;;;;12.07;100.00;99411.06;5110356;27;19913;-76
2021/06/28 04:31:42;;;;;;;;;;;;;;;12.04;100.00;99404.28;5089967;28;19912;-79
2021/06/28 04:34:23;;;;;;;;;;;;;;;12.11;100.00;99415.38;5109528;27;19916;-78
2021/06/28 04:37:03;;;;;;;;;;;;;;;12.08;100.00;99416.22;5090244;28;19921;-76
2021/06/28 04:39:47;;;;;;;;;;;;;;;12.11;100.00;99415.38;5090371;28;19939;-79
2021/06/28 04:42:31;;;;;;;;;;;;;;;12.13;100.00;99420.56;5090305;28;19920;-79
2021/06/28 04:45:17;;;;;;;;;;;;;;;12.14;100.00;99436.94;5090362;28;19912;-79
2021/06/28 04:48:03;;;;;;;;;;;;;;;12.09;100.00;99448.63;5116466;27;20328;-79
2021/06/28 04:50:48;;;;;;;;;;;;;;;12.12;100.00;99449.75;5090126;28;20310;-78
2021/06/28 04:53:33;;;;;;;;;;;;;;;12.12;100.00;99446.97;5090093;28;19970;-77
2021/06/28 04:56:18;;;;;;;;;;;;;;;12.17;100.00;99447.28;5089927;28;20653;-79
2021/06/28 04:59:02;;;;;;;;;;;;;;;12.25;100.00;99443.13;5083139;28;19916;-77
2021/06/28 05:02:05;;;;;;;;;;;;;;;12.27;100.00;99435.09;5090431;28;19942;-86
2021/06/28 05:04:50;;;;;;;;;;;;;;;12.29;100.00;99438.28;5085076;28;19943;-82
2021/06/28 05:07:34;;;;;;;;;;;;;;;12.30;100.00;99437.06;5089756;28;19916;-79
2021/06/28 05:10:18;;;;;;;;;;;;;;;12.29;100.00;99432.69;5087861;28;19950;-77
2021/06/28 05:13:03;;;;;;;;;;;;;;;12.25;100.00;99431.94;5080925;28;19917;-77
2021/06/28 05:15:57;;;;;;;;;;;;;;;12.19;100.00;99453.25;5137217;27;20018;-77
2021/06/28 05:18:42;;;;;;;;;;;;;;;12.11;100.00;99457.41;5080143;28;19913;-79
2021/06/28 05:21:21;;;;;;;;;;;;;;;12.05;100.00;99467.50;5077024;28;19916;-88
2021/06/28 05:24:01;;;;;;;;;;;;;;;11.99;100.00;99474.00;5079662;28;19912;-79
2021/06/28 05:26:41;;;;;;;;;;;;;;;12.01;100.00;99475.13;5075412;28;20396;-79
2021/06/28 05:29:20;;;;;;;;;;;;;;;12.05;100.00;99492.69;5098010;27;19912;-78
2021/06/28 05:31:59;;;;;;;;;;;;;;;11.94;100.00;99506.06;5078781;28;19920;-80
2021/06/28 05:34:38;;;;;;;;;;;;;;;11.93;100.00;99515.69;5109577;27;19981;-79
2021/06/28 05:37:18;;;;;;;;;;;;;;;11.88;100.00;99507.75;5078240;28;20571;-79
2021/06/28 05:39:55;;;;;;;;;;;;;;;11.98;100.00;99506.78;5067622;27;2021877;-76
2021/06/28 05:42:35;;;;;;;;;;;;;;;12.02;100.00;99507.56;5089894;28;19912;-76
2021/06/28 05:45:15;;;;;;;;;;;;;;;11.97;100.00;99510.81;5088927;28;20964;-79
2021/06/28 05:47:54;;;;;;;;;;;;;;;11.95;100.00;99506.88;5110159;27;20383;-79
2021/06/28 05:50:33;;;;;;;;;;;;;;;11.95;100.00;99502.03;5090587;28;19939;-79
2021/06/28 05:53:12;;;;;;;;;;;;;;;11.93;100.00;99487.69;5110980;27;19938;-79
2021/06/28 05:55:52;;;;;;;;;;;;;;;11.97;100.00;99482.81;5131610;27;19915;-81
2021/06/28 05:58:30;;;;;;;;;;;;;;;11.94;100.00;99494.06;5121177;27;19957;-78
2021/06/28 06:01:10;;;;;;;;;;;;;;;11.97;100.00;99499.63;5072960;28;19924;-79
2021/06/28 06:04:14;;;;;;;;;;;;;;;11.89;100.00;99486.16;5158391;27;20285;-77
2021/06/28 06:06:58;;;;;;;;;;;;;;;11.79;100.00;99476.69;5088636;27;19947;-79
2021/06/28 06:09:37;;;;;;;;;;;;;;;11.76;100.00;99483.13;5055801;28;19916;-79
2021/06/28 06:12:17;;;;;;;;;;;;;;;11.62;100.00;99494.50;5128181;27;19920;-76
2021/06/28 06:14:56;;;;;;;;;;;;;;;11.59;100.00;99495.31;5104688;27;19915;-78
2021/06/28 06:17:36;;;;;;;;;;;;;;;11.53;100.00;99480.22;5134065;27;19916;-78
2021/06/28 06:20:14;;;;;;;;;;;;;;;11.54;100.00;99481.78;5127837;27;19912;-78
2021/06/28 06:23:04;;;;;;;;;;;;;;;11.59;100.00;99489.72;5070862;28;19913;-78
2021/06/28 06:25:44;;;;;;;;;;;;;;;11.64;100.00;99508.88;5132512;27;19916;-76
2021/06/28 06:28:22;;;;;;;;;;;;;;;11.66;100.00;99523.22;5122599;27;19916;-77
2021/06/28 06:31:01;;;;;;;;;;;;;;;11.72;100.00;99527.16;5113496;27;19923;-78
2021/06/28 06:33:40;;;;;;;;;;;;;;;11.77;100.00;99523.13;5096631;27;20345;-78
2021/06/28 06:36:19;;;;;;;;;;;;;;;11.74;100.00;99530.34;5132029;27;20282;-74
2021/06/28 06:38:58;;;;;;;;;;;;;;;11.66;100.00;99528.06;5097225;27;19923;-75
2021/06/28 06:41:37;;;;;;;;;;;;;;;11.63;100.00;99534.50;5082156;27;20030;-78
2021/06/28 06:44:16;;;;;;;;;;;;;;;11.68;100.00;99529.22;5081580;28;19912;-78
2021/06/28 06:46:55;;;;;;;;;;;;;;;11.73;100.00;99534.34;5084377;28;19916;-78
2021/06/28 06:49:35;;;;;;;;;;;;;;;11.68;100.00;99537.63;5106052;27;19938;-75
2021/06/28 06:52:24;;;;;;;;;;;;;;;11.78;100.00;99549.91;5106203;27;19912;-79
2021/06/28 06:55:09;;;;;;;;;;;;;;;11.80;100.00;99565.03;5082670;28;19970;-78
2021/06/28 06:57:51;;;;;;;;;;;;;;;11.83;100.00;99550.22;5082980;28;20367;-79
2021/06/28 07:00:44;;;;;;;;;;;;;;;11.92;100.00;99547.69;5102342;27;20428;-81
2021/06/28 07:03:23;;;;;;;;;;;;;;;11.96;100.00;99548.44;5087658;27;19917;-79
2021/06/28 07:06:04;;;;;;;;;;;;;;;12.01;100.00;99539.56;5081867;28;19943;-82
2021/06/28 07:08:45;;;;;;;;;;;;;;;11.99;100.00;99530.81;5082684;27;20509;-83
2021/06/28 07:11:30;;;;;;;;;;;;;;;12.02;100.00;99535.56;5156524;27;19916;-82
2021/06/28 07:14:11;;;;;;;;;;;;;;;12.07;100.00;99529.47;5088705;27;19912;-84
2021/06/28 07:16:52;;;;;;;;;;;;;;;12.13;100.00;99524.19;5088408;28;20405;-84
2021/06/28 07:19:34;;;;;;;;;;;;;;;12.33;100.00;99505.44;5087581;28;20276;-82
2021/06/28 07:22:19;;;;;;;;;;;;;;;12.38;100.00;99488.97;5087876;28;19958;-85
2021/06/28 07:25:05;;;;;;;;;;;;;;;12.50;100.00;99481.94;5087998;27;20423;-80
2021/06/28 07:27:50;;;;;;;;;;;;;;;12.63;100.00;99489.31;5083698;28;19917;-78
2021/06/28 07:30:29;;;;;;;;;;;;;;;12.58;100.00;99495.44;5087417;28;20376;-78
2021/06/28 07:33:09;;;;;;;;;;;;;;;12.62;100.00;99500.97;5083648;28;19912;-78
2021/06/28 07:35:48;;;;;;;;;;;;;;;12.69;100.00;99501.63;5106379;27;20378;-80
2021/06/28 07:38:27;;;;;;;;;;;;;;;12.80;100.00;99501.44;5083414;28;19938;-78
2021/06/28 07:41:06;;;;;;;;;;;;;;;12.90;100.00;99489.25;5100388;27;19912;-80
2021/06/28 07:43:45;;;;;;;;;;;;;;;13.04;100.00;99489.00;5083052;28;19917;-77
2021/06/28 07:46:25;;;;;;;;;;;;;;;13.16;100.00;99476.38;5103431;27;19924;-77
2021/06/28 07:49:05;;;;;;;;;;;;;;;13.21;100.00;99464.66;5103954;27;19938;-76
2021/06/28 07:51:44;;;;;;;;;;;;;;;13.11;100.00;99460.81;5069318;28;19913;-75
2021/06/28 07:54:25;;;;;;;;;;;;;;;13.09;100.00;99454.84;5085644;28;20516;-79
2021/06/28 07:57:07;;;;;;;;;;;;;;;13.14;100.00;99445.13;5085017;27;19970;-76
2021/06/28 07:59:45;;;;;;;;;;;;;;;13.16;100.00;99435.06;5084889;28;19913;-79
2021/06/28 08:02:25;;;;;;;;;;;;;;;13.33;100.00;99427.53;5066190;28;20002;-76
2021/06/28 08:05:06;;;;;;;;;;;;;;;13.35;100.00;99425.03;5099707;27;20400;-79
2021/06/28 08:07:44;;;;;;;;;;;;;;;13.30;100.00;99405.94;5097296;27;19912;-79
2021/06/28 08:10:29;;;;;;;;;;;;;;;13.33;100.00;99389.00;5081678;28;19964;-79
2021/06/28 08:13:13;;;;;;;;;;;;;;;13.44;100.00;99388.75;5086942;28;19912;-79
2021/06/28 08:15:54;;;;;;;;;;;;;;;13.58;100.00;99385.66;5071874;28;19913;-79
2021/06/28 08:18:41;;;;;;;;;;;;;;;13.58;100.00;99371.59;5083689;28;19962;-86
2021/06/28 08:21:29;;;;;;;;;;;;;;;13.83;100.00;99363.38;5064709;28;19917;-77
2021/06/28 08:24:09;;;;;;;;;;;;;;;14.10;100.00;99344.25;5102828;27;19920;-86
2021/06/28 08:26:51;;;;;;;;;;;;;;;14.30;100.00;99344.94;5086084;28;19962;-79
2021/06/28 08:29:32;;;;;;;;;;;;;;;14.51;100.00;99341.56;5134671;27;20389;-81
2021/06/28 08:32:18;;;;;;;;;;;;;;;14.53;100.00;99330.66;5081942;28;19916;-80
2021/06/28 08:35:04;;;;;;;;;;;;;;;14.42;100.00;99325.31;5078054;28;19959;-80
2021/06/28 08:37:49;;;;;;;;;;;;;;;14.44;100.00;99317.25;5086335;27;19912;-79
2021/06/28 08:40:31;;;;;;;;;;;;;;;14.33;100.00;99301.88;5077796;28;19921;-80
2021/06/28 08:43:10;;;;;;;;;;;;;;;14.46;100.00;99292.28;5086251;28;19913;-78
2021/06/28 08:45:50;;;;;;;;;;;;;;;14.24;100.00;99293.31;5085525;28;20261;-77
2021/06/28 08:48:31;;;;;;;;;;;;;;;14.19;100.00;99282.59;5086557;28;19916;-79
2021/06/28 08:51:10;;;;;;;;;;;;;;;14.29;100.00;99276.72;5106747;27;19925;-77
2021/06/28 08:53:57;;;;;;;;;;;;;;;14.32;100.00;99264.59;5106359;27;19942;-80
2021/06/28 08:56:39;;;;;;;;;;;;;;;14.29;100.00;99271.09;5076152;28;19921;-81
2021/06/28 08:59:22;;;;;;;;;;;;;;;14.43;100.00;99259.44;5079223;27;20702;-81
2021/06/28 09:02:25;;;;;;;;;;;;;;;14.54;100.00;99253.50;5087244;28;19965;-76
2021/06/28 09:05:06;;;;;;;;;;;;;;;14.63;100.00;99245.19;5117320;27;19916;-80
2021/06/28 09:07:46;;;;;;;;;;;;;;;14.67;100.00;99245.91;5084903;27;19921;-81
2021/06/28 09:10:36;;;;;;;;;;;;;;;14.71;100.00;99240.19;5086884;27;19921;-81
2021/06/28 09:13:15;;;;;;;;;;;;;;;14.79;100.00;99250.75;5080020;28;19971;-84
2021/06/28 09:16:10;;;;;;;;;;;;;;;15.10;100.00;99236.97;5077674;28;19921;-81
2021/06/28 09:18:56;;;;;;;;;;;;;;;15.64;100.00;99251.72;5081418;27;19920;-80
2021/06/28 09:21:40;;;;;;;;;;;;;;;15.61;100.00;99247.78;5084298;28;19944;-80
2021/06/28 09:24:30;;;;;;;;;;;;;;;15.91;100.00;99244.31;5127991;27;20375;-79
2021/06/28 09:27:09;;;;;;;;;;;;;;;16.35;100.00;99233.91;5079936;28;19920;-79
2021/06/28 09:29:55;;;;;;;;;;;;;;;16.88;100.00;99231.94;5074503;28;19943;-80
2021/06/28 09:32:49;;;;;;;;;;;;;;;16.90;100.00;99223.78;5076573;27;19923;-81
2021/06/28 09:35:37;;;;;;;;;;;;;;;16.73;100.00;99211.16;5090136;27;19917;-76
2021/06/28 09:38:38;;;;;;;;;;;;;;;16.57;100.00;99208.56;5065845;28;19962;-77
2021/06/28 09:41:22;;;;;;;;;;;;;;;16.01;100.00;99209.34;5074651;28;20339;-76
2021/06/28 09:44:03;;;;;;;;;;;;;;;15.91;100.00;99216.16;5062378;28;19917;-76
2021/06/28 09:46:41;;;;;;;;;;;;;;;15.76;100.00;99220.69;5031208;27;2002640;-77
2021/06/28 09:49:20;;;;;;;;;;;;;;;15.75;100.00;99223.97;5081151;28;20516;-77
2021/06/28 09:52:00;;;;;;;;;;;;;;;15.73;100.00;99213.16;5067359;27;19970;-76
2021/06/28 09:54:54;;;;;;;;;;;;;;;15.83;100.00;99214.81;5089505;27;19921;-77
2021/06/28 09:58:02;;;;;;;;;;;;;;;15.91;100.00;99213.34;5057519;28;19912;-76
2021/06/28 10:00:50;;;;;;;;;;;;;;;16.02;100.00;99216.53;5085519;28;19912;-76
2021/06/28 10:03:51;;;;;;;;;;;;;;;16.02;100.00;99216.53;5100196;27;19956;-76
2021/06/28 10:06:56;;;;;;;;;;;;;;;15.88;100.00;99214.25;5067487;27;19919;-76
2021/06/28 10:10:12;;;;;;;;;;;;;;;15.82;100.00;99218.88;5090299;27;19928;-76
2021/06/28 10:13:28;;;;;;;;;;;;;;;16.07;100.00;99218.78;5057717;27;20387;-76
2021/06/28 10:16:31;;;;;;;;;;;;;;;16.58;100.00;99219.38;5071461;27;19966;-76
2021/06/28 10:19:27;;;;;;;;;;;;;;;16.66;100.00;99225.53;5131619;27;19923;-77
2021/06/28 10:22:25;;;;;;;;;;;;;;;16.64;100.00;99225.19;5072517;27;20457;-77
2021/06/28 10:25:21;;;;;;;;;;;;;;;16.48;100.00;99214.13;5071788;27;19913;-76
2021/06/28 10:28:19;;;;;;;;;;;;;;;16.54;100.00;99221.53;5172951;27;19922;-76
2021/06/28 10:31:15;;;;;;;;;;;;;;;16.39;100.00;99211.22;5131596;27;19919;-76
2021/06/28 10:34:13;;;;;;;;;;;;;;;16.42;100.00;99215.94;5131689;27;19965;-76
2021/06/28 10:37:28;;;;;;;;;;;;;;;16.25;100.00;99218.94;5131517;27;20353;-76
2021/06/28 10:40:44;;;;;;;;;;;;;;;16.13;100.00;99216.97;5123517;27;19971;-76
2021/06/28 10:43:37;;;;;;;;;;;;;;;16.18;100.00;99219.19;5071475;27;19917;-76
2021/06/28 10:46:38;;;;;;;;;;;;;;;16.15;100.00;99228.56;5131780;27;19912;-79
2021/06/28 10:49:38;;;;;;;;;;;;;;;16.24;100.00;99220.19;5141204;27;19973;-76
2021/06/28 10:52:35;;;;;;;;;;;;;;;16.10;100.00;99223.50;5144974;27;19916;-76
2021/06/28 10:55:28;;;;;;;;;;;;;;;16.08;100.00;99217.53;5131630;28;19923;-76
2021/06/28 10:58:26;;;;;;;;;;;;;;;16.05;100.00;99212.81;5131476;28;20271;-76
2021/06/28 11:01:15;;;;;;;;;;;;;;;16.00;100.00;99213.41;5098930;28;19923;-76
2021/06/28 11:04:04;;;;;;;;;;;;;;;16.01;100.00;99220.63;5131426;28;19927;-76
2021/06/28 11:06:59;;;;;;;;;;;;;;;16.00;100.00;99216.22;5131265;28;19966;-76
2021/06/28 11:09:56;;;;;;;;;;;;;;;15.86;100.00;99213.91;5113288;28;19931;-76
2021/06/28 11:12:42;;;;;;;;;;;;;;;16.02;100.00;99210.91;5118029;28;20076;-76
2021/06/28 11:15:29;;;;;;;;;;;;;;;16.13;100.00;99210.53;5131481;28;19946;-76
2021/06/28 11:18:27;;;;;;;;;;;;;;;15.99;100.00;99197.72;5131393;28;19930;-77
2021/06/28 11:21:33;;;;;;;;;;;;;;;16.02;100.00;99208.09;5131126;28;19928;-77
2021/06/28 11:24:09;;;;;;;;;;;;;;;16.17;100.00;99203.53;5114443;28;19931;-77
2021/06/28 11:27:15;;;;;;;;;;;;;;;16.37;100.00;99205.25;5070429;28;19939;-76
2021/06/28 11:30:21;;;;;;;;;;;;;;;16.20;100.00;99202.63;5071372;27;19913;-76
2021/06/28 11:33:41;;;;;;;;;;;;;;;15.64;100.00;99190.53;5072627;27;19920;-76
2021/06/28 11:36:35;;;;;;;;;;;;;;;15.85;100.00;99201.06;5070521;28;19967;-76
2021/06/28 11:39:03;;;;;;;;;;;;;;;16.03;100.00;99201.22;5050435;28;19929;-76
2021/06/28 11:42:13;;;;;;;;;;;;;;;16.27;100.00;99199.53;5094842;27;20351;-76
2021/06/28 11:45:10;;;;;;;;;;;;;;;15.95;100.00;99199.09;5071635;27;20368;-76
2021/06/28 11:48:04;;;;;;;;;;;;;;;16.07;100.00;99196.25;5071652;27;19913;-76
2021/06/28 11:51:13;;;;;;;;;;;;;;;16.15;100.00;99197.56;4996552;28;19925;-76
2021/06/28 11:54:13;;;;;;;;;;;;;;;16.00;100.00;99196.50;5071584;27;19919;-76
2021/06/28 11:57:22;;;;;;;;;;;;;;;15.88;100.00;99197.34;5149796;27;19912;-75
2021/06/28 12:00:20;;;;;;;;;;;;;;;15.62;100.00;99195.81;5159044;27;20369;-75
2021/06/28 12:03:28;;;;;;;;;;;;;;;15.63;100.00;99197.41;5061331;27;20338;-75
2021/06/28 12:06:24;;;;;;;;;;;;;;;15.47;100.00;99196.75;5070473;27;19913;-75
2021/06/28 12:09:18;;;;;;;;;;;;;;;15.58;100.00;99198.00;5060705;27;19913;-75
2021/06/28 12:12:16;;;;;;;;;;;;;;;15.74;100.00;99203.47;5167300;27;19934;-75
2021/06/28 12:15:10;;;;;;;;;;;;;;;15.69;100.00;99197.63;5093172;27;20287;-75
2021/06/28 12:18:07;;;;;;;;;;;;;;;15.61;100.00;99197.09;5170894;27;19999;-75
2021/06/28 12:21:00;;;;;;;;;;;;;;;15.66;100.00;99193.66;5066929;27;20295;-75
2021/06/28 12:24:07;;;;;;;;;;;;;;;15.90;100.00;99202.50;5069298;27;19913;-75
2021/06/28 12:27:05;;;;;;;;;;;;;;;15.89;100.00;99200.91;5065041;27;19925;-75
2021/06/28 12:29:49;;;;;;;;;;;;;;;15.71;100.00;99204.38;5089999;28;19966;-75
2021/06/28 12:32:29;;;;;;;;;;;;;;;15.81;100.00;99200.38;5033911;28;19980;-75
2021/06/28 12:35:09;;;;;;;;;;;;;;;15.86;100.00;99213.09;5099926;27;19957;-74
2021/06/28 12:37:56;;;;;;;;;;;;;;;16.00;100.00;99209.78;5079675;28;20018;-74
2021/06/28 12:40:37;;;;;;;;;;;;;;;16.20;100.00;99222.34;5089858;28;19916;-72
2021/06/28 12:43:19;;;;;;;;;;;;;;;16.56;100.00;99215.41;5085753;28;19912;-72
2021/06/28 12:45:59;;;;;;;;;;;;;;;17.10;100.00;99210.09;5087944;28;19912;-72
2021/06/28 12:48:38;;;;;;;;;;;;;;;17.24;100.00;99203.84;5086700;28;19917;-72
2021/06/28 12:51:20;;;;;;;;;;;;;;;17.40;100.00;99204.38;5108061;27;19920;-72
2021/06/28 12:54:03;;;;;;;;;;;;;;;17.46;100.00;99210.25;5085471;28;19917;-72
2021/06/28 12:56:56;;;;;;;;;;;;;;;17.62;100.00;99207.94;5071332;27;19913;-73
2021/06/28 12:59:52;;;;;;;;;;;;;;;17.59;100.00;99202.44;5121662;27;19920;-72
2021/06/28 13:03:17;;;;;;;;;;;;;;;17.46;100.00;99204.59;5141943;27;19912;-74
2021/06/28 13:06:22;;;;;;;;;;;;;;;17.65;100.00;99204.19;5142486;27;20255;-75
2021/06/28 13:09:18;;;;;;;;;;;;;;;17.54;100.00;99205.88;5115063;27;19935;-75
2021/06/28 13:12:24;;;;;;;;;;;;;;;17.46;100.00;99215.91;5057827;27;20280;-75
2021/06/28 13:15:28;;;;;;;;;;;;;;;17.59;100.00;99219.38;5049337;28;20379;-75
2021/06/28 13:18:24;;;;;;;;;;;;;;;17.70;100.00;99208.44;5169125;27;19922;-75
2021/06/28 13:21:38;;;;;;;;;;;;;;;17.57;100.00;99214.19;5068766;27;19914;-75
2021/06/28 13:24:34;;;;;;;;;;;;;;;17.50;100.00;99216.53;5106282;27;19924;-75
2021/06/28 13:27:47;;;;;;;;;;;;;;;17.07;100.00;99219.50;5102543;28;20371;-85
2021/06/28 13:30:57;;;;;;;;;;;;;;;16.95;100.00;99223.19;5166836;27;20269;-74
2021/06/28 13:34:00;;;;;;;;;;;;;;;17.00;100.00;99222.56;5066269;27;19966;-72
2021/06/28 13:37:17;;;;;;;;;;;;;;;16.96;100.00;99222.75;4571054;27;15766636;-74
2021/06/28 13:40:16;;;;;;;;;;;;;;;16.61;100.00;99218.44;5069086;27;20443;-74
2021/06/28 13:43:14;;;;;;;;;;;;;;;16.27;100.00;99227.72;5067415;28;19966;-74
2021/06/28 13:46:27;;;;;;;;;;;;;;;16.04;100.00;99224.53;5081338;27;20321;-74
2021/06/28 13:49:28;;;;;;;;;;;;;;;15.93;100.00;99230.56;5070527;27;19920;-74
2021/06/28 13:52:26;;;;;;;;;;;;;;;15.85;100.00;99234.88;5172078;27;19918;-74
2021/06/28 13:55:23;;;;;;;;;;;;;;;16.04;100.00;99235.81;5172114;27;20380;-74
2021/06/28 13:58:30;;;;;;;;;;;;;;;15.93;100.00;99238.22;5122633;27;20426;-74